AFR443 SBGL-LFPG
Flight info
| Callsign | AFR443 |
|---|---|
| Flight time | N/A |
| Altitude | 37000 |
| Route | UKENU UN857 FNR UB623 CVS UN873 IPERA N873 GDV N858 VASTO UN858 AKUDA UZ1 VFA UL14 ALAGU DCT BABOV N873 DELOG DCT YURZI UL14 TEPRA UN867 MOKOR UN741 KEPER |
| Aircraft | A332/H-SDE3GHIJ2J3J5M1RVWXY/LB2D1 |
Departure
| Time | 2026-04-30 22:49 |
|---|---|
| Airport | Rio Galeão – Tom Jobim International Airport (SBGL) |
Arrival
| Time | N/A |
|---|---|
| Airport | Charles de Gaulle International Airport (LFPG) |
| Time | Latitude | Longitude | Altitude | Speed | Heading |
|---|---|---|---|---|---|
| 2026-04-30 22:22 | -22.81106 | -43.25322 | 25 ft | 0 kts | 76° |
| 2026-04-30 22:33 | -22.80083 | -43.22711 | 41 ft | 0 kts | 221° |
| 2026-04-30 22:34 | -22.81835 | -43.24448 | 29 ft | 0 kts | 127° |
| 2026-04-30 22:36 | -22.81829 | -43.24456 | 31 ft | 4 kts | 124° |
| 2026-04-30 22:37 | -22.81803 | -43.24534 | 29 ft | 4 kts | 84° |
| 2026-04-30 22:37 | -22.81813 | -43.24558 | 31 ft | 4 kts | 38° |
| 2026-04-30 22:37 | -22.81848 | -43.24580 | 31 ft | 1 kts | 35° |
| 2026-04-30 22:39 | -22.81812 | -43.24561 | 27 ft | 6 kts | 17° |
| 2026-04-30 22:40 | -22.81713 | -43.24635 | 27 ft | 10 kts | 307° |
| 2026-04-30 22:41 | -22.81604 | -43.24806 | 31 ft | 10 kts | 305° |
| 2026-04-30 22:41 | -22.81526 | -43.24919 | 28 ft | 9 kts | 302° |
| 2026-04-30 22:42 | -22.81596 | -43.25126 | 28 ft | 11 kts | 217° |
| 2026-04-30 22:43 | -22.81572 | -43.25242 | 28 ft | 9 kts | 305° |
| 2026-04-30 22:43 | -22.81468 | -43.25399 | 28 ft | 14 kts | 304° |
| 2026-04-30 22:44 | -22.81353 | -43.25574 | 25 ft | 14 kts | 306° |
| 2026-04-30 22:45 | -22.81112 | -43.25805 | 30 ft | 11 kts | 33° |
| 2026-04-30 22:45 | -22.80933 | -43.25669 | 30 ft | 17 kts | 36° |
| 2026-04-30 22:46 | -22.80754 | -43.25532 | 29 ft | 16 kts | 34° |
| 2026-04-30 22:47 | -22.80496 | -43.25557 | 34 ft | 12 kts | 327° |
| 2026-04-30 22:47 | -22.80340 | -43.25586 | 31 ft | 14 kts | 35° |
| 2026-04-30 22:48 | -22.80183 | -43.25459 | 29 ft | 11 kts | 43° |
| 2026-04-30 22:49 | -22.79980 | -43.24708 | 35 ft | 100 kts | 74° |
| 2026-04-30 22:49 | -22.79086 | -43.21274 | 669 ft | 181 kts | 79° |
| 2026-04-30 22:50 | -22.78018 | -43.15755 | 2248 ft | 222 kts | 79° |
| 2026-04-30 22:51 | -22.77266 | -43.12226 | 2981 ft | 255 kts | 78° |
| 2026-04-30 22:51 | -22.76074 | -43.08543 | 4175 ft | 266 kts | 56° |
| 2026-04-30 22:52 | -22.74814 | -43.07062 | 4844 ft | 270 kts | 42° |
| 2026-04-30 22:52 | -22.71815 | -43.04482 | 6129 ft | 278 kts | 37° |
| 2026-04-30 22:53 | -22.68681 | -43.01919 | 7389 ft | 286 kts | 37° |
| 2026-04-30 22:53 | -22.65491 | -42.99319 | 8778 ft | 291 kts | 37° |
| 2026-04-30 22:53 | -22.63864 | -42.97994 | 9454 ft | 294 kts | 37° |
| 2026-04-30 22:54 | -22.60538 | -42.95286 | 10525 ft | 311 kts | 36° |
| 2026-04-30 22:55 | -22.54919 | -42.90715 | 11332 ft | 357 kts | 36° |
| 2026-04-30 22:55 | -22.50878 | -42.87429 | 12319 ft | 368 kts | 36° |
| 2026-04-30 22:56 | -22.46762 | -42.84084 | 13497 ft | 371 kts | 36° |
| 2026-04-30 22:56 | -22.40499 | -42.79002 | 14883 ft | 383 kts | 35° |
| 2026-04-30 22:57 | -22.36199 | -42.75519 | 15756 ft | 390 kts | 35° |
| 2026-04-30 22:57 | -22.31819 | -42.71968 | 16630 ft | 396 kts | 34° |
| 2026-04-30 22:58 | -22.27375 | -42.68377 | 17424 ft | 402 kts | 34° |
| 2026-04-30 22:59 | -22.20576 | -42.62872 | 18545 ft | 412 kts | 34° |
| 2026-04-30 22:59 | -22.13669 | -42.57292 | 19639 ft | 417 kts | 34° |